createdAt,value
2022-12-05T00:03:34.055Z,17.87
2022-12-05T00:13:37.148Z,16.63
2022-12-05T00:23:42.070Z,17.13
2022-12-05T00:33:45.865Z,17.03
2022-12-05T00:43:50.515Z,16.00
2022-12-05T00:53:53.784Z,16.47
2022-12-05T01:04:00.035Z,14.77
2022-12-05T01:14:03.317Z,15.03
2022-12-05T01:24:08.563Z,14.27
2022-12-05T01:34:14.654Z,13.73
2022-12-05T01:44:54.851Z,13.00
2022-12-05T01:55:03.519Z,13.60
2022-12-05T02:05:10.168Z,14.60
2022-12-05T02:15:37.393Z,14.03
2022-12-05T02:26:08.810Z,13.03
2022-12-05T02:36:19.011Z,11.07
2022-12-05T02:46:24.479Z,10.70
2022-12-05T02:56:30.833Z,11.57
2022-12-05T03:06:37.291Z,10.17
2022-12-05T03:16:45.465Z,10.93
2022-12-05T03:26:56.430Z,10.57
2022-12-05T03:37:07.222Z,11.90
2022-12-05T03:47:18.425Z,11.80
2022-12-05T03:57:25.417Z,13.50
2022-12-05T04:07:33.113Z,12.97
2022-12-05T04:17:46.947Z,11.87
2022-12-05T04:27:58.418Z,10.50
2022-12-05T04:38:06.275Z,10.03
2022-12-05T04:48:13.669Z,10.70
2022-12-05T04:58:21.337Z,9.33
2022-12-05T05:08:27.312Z,9.73
2022-12-05T05:18:31.870Z,9.73
2022-12-05T05:28:34.851Z,10.83
2022-12-05T05:38:39.926Z,11.27
2022-12-05T05:48:43.235Z,10.93
2022-12-05T05:58:48.152Z,10.07
2022-12-05T06:08:51.209Z,10.30
2022-12-05T06:18:55.742Z,11.03
2022-12-05T06:28:58.741Z,11.03
2022-12-05T06:39:03.144Z,10.67
2022-12-05T06:49:06.605Z,11.27
2022-12-05T06:59:11.074Z,11.00
2022-12-05T07:09:14.320Z,10.90
2022-12-05T07:19:18.667Z,11.33
2022-12-05T07:29:21.711Z,11.50
2022-12-05T07:39:26.130Z,11.63
2022-12-05T07:49:29.283Z,11.80
2022-12-05T07:59:33.758Z,12.23
2022-12-05T08:09:36.739Z,12.03
2022-12-05T08:19:41.205Z,11.83
2022-12-05T08:29:44.639Z,11.33
2022-12-05T08:39:49.609Z,11.93
2022-12-05T08:49:52.627Z,11.23
2022-12-05T08:59:57.079Z,11.23
2022-12-05T09:10:00.074Z,11.53
2022-12-05T09:20:04.778Z,10.63
2022-12-05T09:30:09.373Z,10.57
2022-12-05T09:40:18.749Z,12.00
2022-12-05T09:50:23.825Z,11.70
2022-12-05T10:00:30.427Z,10.83
2022-12-05T10:10:43.163Z,9.57
2022-12-05T10:20:52.577Z,9.47
2022-12-05T10:30:59.889Z,9.20
2022-12-05T10:41:08.282Z,8.83
2022-12-05T10:51:15.880Z,9.67
2022-12-05T11:01:20.690Z,9.07
2022-12-05T11:11:28.422Z,9.00
2022-12-05T11:21:43.661Z,8.83
2022-12-05T11:31:52.990Z,8.73
2022-12-05T11:42:12.125Z,7.83
2022-12-05T11:52:28.427Z,8.20
2022-12-05T12:02:50.657Z,6.20
2022-12-05T12:13:06.538Z,6.37
2022-12-05T12:23:26.883Z,6.30
2022-12-05T12:33:35.322Z,6.93
2022-12-05T12:43:53.994Z,5.50
2022-12-05T12:54:08.058Z,6.40
2022-12-05T13:04:15.719Z,6.23
2022-12-05T13:14:25.227Z,6.23
2022-12-05T13:24:30.023Z,6.27
2022-12-05T13:34:46.967Z,7.00
2022-12-05T13:44:53.477Z,7.03
2022-12-05T13:55:02.045Z,7.43
2022-12-05T14:05:45.794Z,6.80
2022-12-05T14:15:50.328Z,6.60
2022-12-05T14:26:08.904Z,6.13
2022-12-05T14:36:18.464Z,6.93
2022-12-05T14:46:26.830Z,6.53
2022-12-05T14:56:29.994Z,6.63
2022-12-05T15:06:37.998Z,6.20
2022-12-05T15:16:45.591Z,6.17
2022-12-05T15:26:53.202Z,5.90
2022-12-05T15:37:01.129Z,4.90
2022-12-05T15:47:05.711Z,5.00
2022-12-05T15:57:13.694Z,5.13
2022-12-05T16:07:18.221Z,5.77
2022-12-05T16:17:22.296Z,5.27
2022-12-05T16:27:28.278Z,5.57
2022-12-05T16:37:31.871Z,7.07
2022-12-05T16:47:59.829Z,7.13
2022-12-05T16:58:03.631Z,6.60
2022-12-05T17:08:08.129Z,6.87
2022-12-05T17:18:15.160Z,6.90
2022-12-05T17:28:19.647Z,8.47
2022-12-05T17:38:22.867Z,13.97
2022-12-05T17:48:27.410Z,9.90
2022-12-05T17:58:30.491Z,10.83
2022-12-05T18:08:39.529Z,11.80
2022-12-05T18:18:42.599Z,10.90
2022-12-05T18:28:47.507Z,9.50
2022-12-05T18:38:52.182Z,9.20
2022-12-05T18:49:01.749Z,9.60
2022-12-05T18:59:08.027Z,9.93
2022-12-05T19:09:15.398Z,9.80
2022-12-05T19:19:18.967Z,10.83
2022-12-05T19:29:23.331Z,9.97
2022-12-05T19:39:27.203Z,10.63
2022-12-05T19:49:31.821Z,10.33
2022-12-05T19:59:34.904Z,13.30
2022-12-05T20:09:39.356Z,10.27
2022-12-05T20:19:42.421Z,9.10
2022-12-05T20:29:46.907Z,10.23
2022-12-05T20:39:51.088Z,10.23
2022-12-05T20:49:55.459Z,9.13
2022-12-05T20:59:58.871Z,9.77
2022-12-05T21:10:08.008Z,11.37
2022-12-05T21:20:12.166Z,10.17
2022-12-05T21:30:17.334Z,9.73
2022-12-05T21:40:20.842Z,10.00
2022-12-05T21:50:25.252Z,10.40
2022-12-05T22:00:28.294Z,11.70
2022-12-05T22:10:34.229Z,10.57
2022-12-05T22:20:37.238Z,9.90
2022-12-05T22:30:41.637Z,9.77
2022-12-05T22:40:44.720Z,9.57
2022-12-05T22:50:49.838Z,9.97
2022-12-05T23:00:52.834Z,11.07
2022-12-05T23:11:00.009Z,9.13
2022-12-05T23:21:04.192Z,9.83
2022-12-05T23:31:10.655Z,8.63
2022-12-05T23:41:16.149Z,9.50
2022-12-05T23:51:23.213Z,9.60
